Aktuální počasí v Česku a ve světě - METAR

Seznam meteostanic umístěných nejčasteji na letišti v ČR a ve světě

Vyhledat místa podle abecedy:
A B C D E F G H I J K L M N O P Q R S T U V W X Y Z

Filtrovat:

ID stanice:
a/nebo
Název místa (fulltext):
 
Místo (ID)Naposledy načteno 
Verona (LIPX) 19.09.2020 14:50 UTC Zobrazit METAR
LIPX 191450Z VRB02KT 9999 FEW090 24/12 Q1018
Vienna (LOWW) 19.09.2020 14:50 UTC Zobrazit METAR
LOWW 191450Z 14013KT CAVOK 20/05 Q1020 NOSIG
Vientiane (VLVT) 19.09.2020 12:00 UTC Zobrazit METAR
VLVT 191200Z 12006KT 4000 -RA BKN010 OVC083 25/25 Q1005 NOSIG
Vieuxfort (TLPL) 19.09.2020 14:00 UTC Zobrazit METAR
TLPL 191400Z 18011KT 9999 FEW025 32/25 Q1013 NOSIG
Vilnius (EYVI) 19.09.2020 14:50 UTC Zobrazit METAR
EYVI 191450Z 27005KT 250V310 9999 SCT025 17/11 Q1021 NOSIG
Vitebsk (UMII) Zatím nenačteno  
Volgograd (URWW) Zatím nenačteno  
Voronezh (UUOO) Zatím nenačteno  
Wake Island (PWAK) 31.05.2020 04:58 UTC Zobrazit METAR
PWAK 310458Z AUTO 08012KT 9999 SCT021 SCT031 BKN055 29/23 A3001 RMK AO2 SLP169 T02860232 $
Warsaw (EPWA) 19.09.2020 15:00 UTC Zobrazit METAR
EPWA 191500Z VRB02KT CAVOK 19/09 Q1023 NOSIG
Washington (KIAD) 19.09.2020 14:52 UTC Zobrazit METAR
KIAD 191452Z 03011KT 10SM FEW100 SCT250 14/01 A3038 RMK AO2 SLP286 T01390011 53014 $
Wellington (NZWN) 18.09.2020 10:00 UTC Zobrazit METAR
NZWN 181000Z AUTO 02013KT 9999 SCT022/// 09/06 Q1015 NOSIG
Windhoek (FYWH) 19.09.2020 15:00 UTC Zobrazit METAR
FYWH 191500Z 28009KT CAVOK 31/M06 Q1022 NOSIG
Wroclaw (EPWR) 19.09.2020 15:00 UTC Zobrazit METAR
EPWR 191500Z 10007KT CAVOK 19/05 Q1022
Yamoussoukro (DIYO) 19.09.2020 14:00 UTC Zobrazit METAR
DIYO 191400Z 32004KT 9999 BKN013 28/23 Q1013 NOSIG
Yangon (VYYY) 18.09.2020 15:00 UTC Zobrazit METAR
VYYY 181500Z 29004KT 7000 FEW020 28/25 Q1001
Yaounde (FKYS) 19.09.2020 10:00 UTC Zobrazit METAR
FKYS 191000Z 21003KT 170V270 9999 BKN013 25/22 Q1019 BECMG BKN016
Yerevan (UGEE) Zatím nenačteno  
Zadar (LDZD) 19.09.2020 15:00 UTC Zobrazit METAR
LDZD 191500Z 30009KT 270V340 CAVOK 26/11 Q1017 NOSIG
Zagreb (LDZA) 19.09.2020 15:00 UTC Zobrazit METAR
LDZA 191500Z 08003KT 050V120 CAVOK 20/07 Q1020 NOSIG
Zaragoza (LEZG) 19.09.2020 15:00 UTC Zobrazit METAR
LEZG 191500Z 25013KT 9999 SCT060 25/13 Q1013
Zhezkazgan (UAKD) Zatím nenačteno  
Zurich (LSZH) 19.09.2020 14:50 UTC Zobrazit METAR
LSZH 191450Z VRB02KT CAVOK 22/16 Q1017 NOSIG
Předchozí 1 ... 7 8 9
Reklama

Počasí na Váš email

Emaily jsou bez reklamy a bez spamu



Odhlásit newsletter




Další české internetové stránky (nejen) o počasí najdete v katalogu TOPlist - weby o počasí nebo vyhledejte na internetu, co jste tu na 🌞 Slunečnu ⛅ zatím nenašli:
⭐ Přidat Slunečno.cz do oblíbených | 🏠 Nastavit Slunečno.cz jako HOMEPAGE

⬆️ Posunout stránku nahoru ⬆️
Reklama